CheckWX is a tool to help pilots better visualize weather data.  It is not intended as a substitute for an official pre-flight weather briefing.

17:15:36 UTC

KANW METAR
Ainsworth Regional Airport
Ainsworth, Nebraska, USA
Current

21 mins ago

KANW 261655Z AUTO 32006KT 10SM CLR 19/09 A2995 RMK AO2 T01880093
Observed
May-26 @ 16:55 UTC
Wind
  • 320° at 6 KTS
Visibility
Flight Rules
VFR
Cloud Levels
  • Clear skies
Temperature
19°C / 66°F
Dewpoint
C / 48°F
Humidity
52%
Altimeter
29.95" Hg
Pressure
1014.22 hPa
Previous

41 mins ago

KANW 261635Z AUTO 33010KT 10SM CLR 18/09 A2995 RMK AO2 T01800085
Observed
May-26 @ 16:35 UTC
Wind
  • 330° at 10 KTS
Visibility
Flight Rules
VFR
Cloud Levels
  • Clear skies
Temperature
18°C / 64°F
Dewpoint
C / 46°F
Humidity
52%
Altimeter
29.95" Hg
Pressure
1014.22 hPa
Previous

1 hour ago

KANW 261615Z AUTO 33008KT 10SM CLR 18/09 A2995 RMK AO2 T01830086
Observed
May-26 @ 16:15 UTC
Wind
  • 330° at 8 KTS
Visibility
Flight Rules
VFR
Cloud Levels
  • Clear skies
Temperature
18°C / 64°F
Dewpoint
C / 48°F
Humidity
56%
Altimeter
29.95" Hg
Pressure
1014.22 hPa